createdAt,value
2023-03-04T00:00:01.058Z,146.2
2023-03-04T00:05:01.122Z,153.3
2023-03-04T00:10:01.058Z,145.0
2023-03-04T00:15:01.159Z,139.1
2023-03-04T00:20:01.054Z,150.0
2023-03-04T00:25:01.132Z,168.5
2023-03-04T00:30:01.077Z,180.8
2023-03-04T00:35:01.158Z,202.2
2023-03-04T00:40:06.088Z,219.1
2023-03-04T00:45:01.142Z,217.2
2023-03-04T00:50:01.079Z,201.8
2023-03-04T00:55:01.141Z,188.5
2023-03-04T01:00:02.079Z,163.6
2023-03-04T01:05:01.529Z,142.6
2023-03-04T01:10:01.039Z,137.4
2023-03-04T01:15:01.136Z,157.0
2023-03-04T01:20:01.031Z,164.2
2023-03-04T01:25:01.143Z,200.4
2023-03-04T01:30:01.076Z,257.0
2023-03-04T01:35:01.153Z,325.8
2023-03-04T01:40:01.065Z,331.6
2023-03-04T01:45:01.205Z,346.7
2023-03-04T01:50:01.069Z,373.8
2023-03-04T01:55:01.164Z,349.4
2023-03-04T02:00:01.073Z,350.9
2023-03-04T02:15:01.544Z,264.2
2023-03-04T02:20:01.413Z,165.3
2023-03-04T02:50:00.893Z,64.8
2023-03-04T02:55:00.892Z,68.5
2023-03-04T03:00:00.799Z,102.9
2023-03-04T03:05:00.873Z,101.0
2023-03-04T03:10:00.832Z,92.0
2023-03-04T03:15:00.909Z,89.8
2023-03-04T03:20:00.829Z,78.8
2023-03-04T03:25:00.913Z,44.3
2023-03-04T03:30:00.800Z,33.1
2023-03-04T03:35:00.863Z,26.9
2023-03-04T03:40:00.785Z,10.0
2023-03-04T03:45:00.859Z,42.4
2023-03-04T03:50:00.800Z,53.6
2023-03-04T03:55:01.855Z,51.1
2023-03-04T04:00:00.782Z,62.6
2023-03-04T04:05:00.916Z,79.4
2023-03-04T04:10:01.194Z,43.2
2023-03-04T04:15:00.882Z,31.4
2023-03-04T04:20:05.770Z,35.1
2023-03-04T04:25:01.222Z,37.5
2023-03-04T04:30:01.108Z,50.0
2023-03-04T04:35:00.894Z,75.5
2023-03-04T04:40:00.762Z,75.3
2023-03-04T04:45:00.831Z,78.0
2023-03-04T04:50:00.823Z,79.1
2023-03-04T04:55:01.450Z,53.0
2023-03-04T05:00:00.823Z,31.9
2023-03-04T05:05:00.901Z,50.3
2023-03-04T05:10:00.881Z,50.7
2023-03-04T05:15:01.198Z,40.4
2023-03-04T05:20:00.814Z,50.4
2023-03-04T05:25:01.027Z,45.5
2023-03-04T05:30:01.199Z,27.1
2023-03-04T05:35:01.051Z,19.6
2023-03-04T05:40:00.837Z,15.7
2023-03-04T05:50:00.928Z,6.0
2023-03-04T05:55:00.963Z,10.5
2023-03-04T06:00:00.835Z,10.2
2023-03-04T06:05:01.366Z,9.4
2023-03-04T06:10:01.186Z,9.3
2023-03-04T06:15:00.898Z,9.1
2023-03-04T06:20:00.849Z,7.4
2023-03-04T06:25:01.001Z,9.6
2023-03-04T06:30:00.958Z,9.6
2023-03-04T06:35:01.062Z,9.5
2023-03-04T06:40:00.883Z,5.2
2023-03-04T06:45:01.314Z,2.4
2023-03-04T09:25:02.943Z,2.6
2023-03-04T09:30:00.876Z,2.7
2023-03-04T09:45:05.960Z,2.7
2023-03-04T10:05:00.956Z,3.9
2023-03-04T10:10:00.776Z,4.0
2023-03-04T10:25:01.638Z,12.6
2023-03-04T10:45:00.920Z,30.8
2023-03-04T10:50:00.784Z,38.3
2023-03-04T10:55:00.852Z,39.3
2023-03-04T11:00:00.821Z,32.5
2023-03-04T11:20:02.271Z,26.0
2023-03-04T11:25:06.282Z,25.9
2023-03-04T11:30:01.288Z,20.1
2023-03-04T11:35:01.347Z,16.3
